sensor_id;sensor_type;location;lat;lon;timestamp;P1;durP1;ratioP1;P2;durP2;ratioP2
45522;SDS011;31254;51.680;5.394;2023-06-14T00:01:37;6.10;;;3.15;;
45522;SDS011;31254;51.680;5.394;2023-06-14T00:04:04;9.30;;;3.10;;
45522;SDS011;31254;51.680;5.394;2023-06-14T00:06:34;7.25;;;3.10;;
45522;SDS011;31254;51.680;5.394;2023-06-14T00:09:01;8.07;;;3.40;;
45522;SDS011;31254;51.680;5.394;2023-06-14T00:11:28;5.47;;;3.08;;
45522;SDS011;31254;51.680;5.394;2023-06-14T00:13:58;7.28;;;3.67;;
45522;SDS011;31254;51.680;5.394;2023-06-14T00:16:27;8.02;;;3.22;;
45522;SDS011;31254;51.680;5.394;2023-06-14T00:18:53;4.95;;;2.95;;
45522;SDS011;31254;51.680;5.394;2023-06-14T00:21:21;6.22;;;3.75;;
45522;SDS011;31254;51.680;5.394;2023-06-14T00:23:47;11.30;;;3.17;;
45522;SDS011;31254;51.680;5.394;2023-06-14T00:26:14;9.43;;;3.35;;
45522;SDS011;31254;51.680;5.394;2023-06-14T00:28:41;7.50;;;3.63;;
45522;SDS011;31254;51.680;5.394;2023-06-14T00:31:08;7.43;;;3.25;;
45522;SDS011;31254;51.680;5.394;2023-06-14T00:33:37;11.18;;;3.33;;
45522;SDS011;31254;51.680;5.394;2023-06-14T00:36:03;8.63;;;2.97;;
45522;SDS011;31254;51.680;5.394;2023-06-14T00:38:31;6.25;;;2.88;;
45522;SDS011;31254;51.680;5.394;2023-06-14T00:40:57;5.50;;;3.10;;
45522;SDS011;31254;51.680;5.394;2023-06-14T00:43:24;7.25;;;3.13;;
45522;SDS011;31254;51.680;5.394;2023-06-14T00:45:53;8.13;;;3.10;;
45522;SDS011;31254;51.680;5.394;2023-06-14T00:48:19;9.30;;;3.22;;
45522;SDS011;31254;51.680;5.394;2023-06-14T00:50:47;5.07;;;2.83;;
45522;SDS011;31254;51.680;5.394;2023-06-14T00:53:17;7.38;;;3.20;;
45522;SDS011;31254;51.680;5.394;2023-06-14T00:55:45;8.52;;;3.03;;
45522;SDS011;31254;51.680;5.394;2023-06-14T00:58:13;6.43;;;2.78;;
45522;SDS011;31254;51.680;5.394;2023-06-14T01:00:41;5.07;;;2.70;;
45522;SDS011;31254;51.680;5.394;2023-06-14T01:03:07;6.07;;;2.90;;
45522;SDS011;31254;51.680;5.394;2023-06-14T01:05:40;6.88;;;2.90;;
45522;SDS011;31254;51.680;5.394;2023-06-14T01:08:31;4.95;;;2.63;;
45522;SDS011;31254;51.680;5.394;2023-06-14T01:11:44;7.53;;;3.17;;
45522;SDS011;31254;51.680;5.394;2023-06-14T01:14:14;8.02;;;2.90;;
45522;SDS011;31254;51.680;5.394;2023-06-14T01:16:42;5.93;;;3.03;;
45522;SDS011;31254;51.680;5.394;2023-06-14T01:19:11;6.43;;;2.80;;
45522;SDS011;31254;51.680;5.394;2023-06-14T01:21:40;6.43;;;3.42;;
45522;SDS011;31254;51.680;5.394;2023-06-14T01:24:08;5.95;;;2.63;;
45522;SDS011;31254;51.680;5.394;2023-06-14T01:26:37;10.13;;;3.35;;
45522;SDS011;31254;51.680;5.394;2023-06-14T01:29:12;3.78;;;2.35;;
45522;SDS011;31254;51.680;5.394;2023-06-14T01:31:46;4.53;;;2.60;;
45522;SDS011;31254;51.680;5.394;2023-06-14T01:34:14;4.70;;;2.97;;
45522;SDS011;31254;51.680;5.394;2023-06-14T01:36:41;12.27;;;3.38;;
45522;SDS011;31254;51.680;5.394;2023-06-14T01:39:11;6.93;;;3.22;;
45522;SDS011;31254;51.680;5.394;2023-06-14T01:41:41;8.10;;;3.10;;
45522;SDS011;31254;51.680;5.394;2023-06-14T01:44:09;6.25;;;3.05;;
45522;SDS011;31254;51.680;5.394;2023-06-14T01:46:38;5.70;;;2.90;;
45522;SDS011;31254;51.680;5.394;2023-06-14T01:49:08;11.02;;;3.15;;
45522;SDS011;31254;51.680;5.394;2023-06-14T01:51:35;10.13;;;2.95;;
45522;SDS011;31254;51.680;5.394;2023-06-14T01:54:01;6.05;;;2.75;;
45522;SDS011;31254;51.680;5.394;2023-06-14T01:56:30;8.18;;;2.70;;
45522;SDS011;31254;51.680;5.394;2023-06-14T01:58:58;8.63;;;2.88;;
45522;SDS011;31254;51.680;5.394;2023-06-14T02:01:25;8.88;;;4.72;;
45522;SDS011;31254;51.680;5.394;2023-06-14T02:03:55;12.40;;;3.03;;
45522;SDS011;31254;51.680;5.394;2023-06-14T02:06:22;9.30;;;2.75;;
45522;SDS011;31254;51.680;5.394;2023-06-14T02:08:50;5.40;;;3.05;;
45522;SDS011;31254;51.680;5.394;2023-06-14T02:11:17;5.05;;;2.83;;
45522;SDS011;31254;51.680;5.394;2023-06-14T02:13:44;10.25;;;3.20;;
45522;SDS011;31254;51.680;5.394;2023-06-14T02:16:14;3.95;;;2.47;;
45522;SDS011;31254;51.680;5.394;2023-06-14T02:18:43;7.53;;;2.85;;
45522;SDS011;31254;51.680;5.394;2023-06-14T02:21:10;5.03;;;2.80;;
45522;SDS011;31254;51.680;5.394;2023-06-14T02:23:37;7.40;;;3.13;;
45522;SDS011;31254;51.680;5.394;2023-06-14T02:26:03;15.45;;;3.30;;
45522;SDS011;31254;51.680;5.394;2023-06-14T02:28:30;9.55;;;2.97;;
45522;SDS011;31254;51.680;5.394;2023-06-14T02:30:59;7.38;;;2.88;;
45522;SDS011;31254;51.680;5.394;2023-06-14T02:33:28;4.55;;;3.30;;
45522;SDS011;31254;51.680;5.394;2023-06-14T02:35:57;8.57;;;2.83;;
45522;SDS011;31254;51.680;5.394;2023-06-14T02:38:24;5.60;;;3.25;;
45522;SDS011;31254;51.680;5.394;2023-06-14T02:40:51;6.63;;;2.63;;
45522;SDS011;31254;51.680;5.394;2023-06-14T02:43:18;4.60;;;2.95;;
45522;SDS011;31254;51.680;5.394;2023-06-14T02:45:44;5.88;;;3.03;;
45522;SDS011;31254;51.680;5.394;2023-06-14T02:48:11;5.22;;;2.92;;
45522;SDS011;31254;51.680;5.394;2023-06-14T02:50:38;7.75;;;3.05;;
45522;SDS011;31254;51.680;5.394;2023-06-14T02:53:07;5.47;;;3.00;;
45522;SDS011;31254;51.680;5.394;2023-06-14T02:55:37;5.32;;;2.63;;
45522;SDS011;31254;51.680;5.394;2023-06-14T02:58:06;6.93;;;3.15;;
45522;SDS011;31254;51.680;5.394;2023-06-14T03:00:33;7.00;;;2.83;;
45522;SDS011;31254;51.680;5.394;2023-06-14T03:03:02;5.45;;;2.97;;
45522;SDS011;31254;51.680;5.394;2023-06-14T03:05:33;6.00;;;3.03;;
45522;SDS011;31254;51.680;5.394;2023-06-14T03:08:00;5.70;;;2.58;;
45522;SDS011;31254;51.680;5.394;2023-06-14T03:10:27;5.68;;;3.00;;
45522;SDS011;31254;51.680;5.394;2023-06-14T03:12:55;5.32;;;2.80;;
45522;SDS011;31254;51.680;5.394;2023-06-14T03:15:24;6.05;;;2.83;;
45522;SDS011;31254;51.680;5.394;2023-06-14T03:17:51;6.78;;;2.78;;
45522;SDS011;31254;51.680;5.394;2023-06-14T03:20:20;6.82;;;3.30;;
45522;SDS011;31254;51.680;5.394;2023-06-14T03:22:47;10.82;;;3.20;;
45522;SDS011;31254;51.680;5.394;2023-06-14T03:25:14;9.02;;;3.80;;
45522;SDS011;31254;51.680;5.394;2023-06-14T03:27:41;7.75;;;2.85;;
45522;SDS011;31254;51.680;5.394;2023-06-14T03:30:08;5.55;;;2.78;;
45522;SDS011;31254;51.680;5.394;2023-06-14T03:32:35;5.78;;;2.60;;
45522;SDS011;31254;51.680;5.394;2023-06-14T03:35:02;5.88;;;2.80;;
45522;SDS011;31254;51.680;5.394;2023-06-14T03:37:31;9.73;;;2.83;;
45522;SDS011;31254;51.680;5.394;2023-06-14T03:39:58;9.68;;;3.10;;
45522;SDS011;31254;51.680;5.394;2023-06-14T03:42:25;7.78;;;3.03;;
45522;SDS011;31254;51.680;5.394;2023-06-14T03:44:52;8.20;;;2.92;;
45522;SDS011;31254;51.680;5.394;2023-06-14T03:47:18;6.22;;;2.70;;
45522;SDS011;31254;51.680;5.394;2023-06-14T03:49:47;8.35;;;2.95;;
45522;SDS011;31254;51.680;5.394;2023-06-14T03:52:14;9.77;;;2.78;;
45522;SDS011;31254;51.680;5.394;2023-06-14T03:54:42;5.28;;;2.83;;
45522;SDS011;31254;51.680;5.394;2023-06-14T03:57:13;7.43;;;3.20;;
45522;SDS011;31254;51.680;5.394;2023-06-14T03:59:40;5.07;;;2.47;;
45522;SDS011;31254;51.680;5.394;2023-06-14T04:02:07;6.38;;;2.75;;
45522;SDS011;31254;51.680;5.394;2023-06-14T04:04:35;5.00;;;2.90;;
45522;SDS011;31254;51.680;5.394;2023-06-14T04:07:04;10.82;;;3.13;;
45522;SDS011;31254;51.680;5.394;2023-06-14T04:09:31;8.98;;;2.60;;
45522;SDS011;31254;51.680;5.394;2023-06-14T04:12:00;8.40;;;2.60;;
45522;SDS011;31254;51.680;5.394;2023-06-14T04:14:27;6.40;;;2.47;;
45522;SDS011;31254;51.680;5.394;2023-06-14T04:16:57;5.88;;;2.80;;
45522;SDS011;31254;51.680;5.394;2023-06-14T04:19:26;10.13;;;2.80;;
45522;SDS011;31254;51.680;5.394;2023-06-14T04:21:53;9.73;;;3.42;;
45522;SDS011;31254;51.680;5.394;2023-06-14T04:24:19;8.60;;;2.60;;
45522;SDS011;31254;51.680;5.394;2023-06-14T04:26:46;7.28;;;3.40;;
45522;SDS011;31254;51.680;5.394;2023-06-14T04:29:14;12.68;;;2.92;;
45522;SDS011;31254;51.680;5.394;2023-06-14T04:31:43;6.63;;;2.53;;
45522;SDS011;31254;51.680;5.394;2023-06-14T04:34:11;8.43;;;2.78;;
45522;SDS011;31254;51.680;5.394;2023-06-14T04:36:43;8.50;;;2.70;;
45522;SDS011;31254;51.680;5.394;2023-06-14T04:39:15;5.68;;;2.60;;
45522;SDS011;31254;51.680;5.394;2023-06-14T04:41:44;6.50;;;3.13;;
45522;SDS011;31254;51.680;5.394;2023-06-14T04:44:11;7.70;;;2.80;;
45522;SDS011;31254;51.680;5.394;2023-06-14T04:46:39;13.75;;;2.60;;
45522;SDS011;31254;51.680;5.394;2023-06-14T04:49:13;6.32;;;3.00;;
45522;SDS011;31254;51.680;5.394;2023-06-14T04:51:41;8.82;;;3.17;;
45522;SDS011;31254;51.680;5.394;2023-06-14T04:54:11;6.45;;;2.70;;
45522;SDS011;31254;51.680;5.394;2023-06-14T04:56:41;10.48;;;2.95;;
45522;SDS011;31254;51.680;5.394;2023-06-14T04:59:09;7.80;;;2.67;;
45522;SDS011;31254;51.680;5.394;2023-06-14T05:01:38;6.53;;;2.97;;
45522;SDS011;31254;51.680;5.394;2023-06-14T05:04:04;7.20;;;2.42;;
45522;SDS011;31254;51.680;5.394;2023-06-14T05:06:32;7.18;;;3.20;;
45522;SDS011;31254;51.680;5.394;2023-06-14T05:08:58;9.95;;;2.22;;
45522;SDS011;31254;51.680;5.394;2023-06-14T05:11:25;6.63;;;2.70;;
45522;SDS011;31254;51.680;5.394;2023-06-14T05:13:53;5.85;;;2.55;;
45522;SDS011;31254;51.680;5.394;2023-06-14T05:16:21;6.90;;;2.97;;
45522;SDS011;31254;51.680;5.394;2023-06-14T05:18:52;8.50;;;3.17;;
45522;SDS011;31254;51.680;5.394;2023-06-14T05:21:18;11.93;;;2.55;;
45522;SDS011;31254;51.680;5.394;2023-06-14T05:23:45;6.93;;;3.05;;
45522;SDS011;31254;51.680;5.394;2023-06-14T05:26:14;5.15;;;2.75;;
45522;SDS011;31254;51.680;5.394;2023-06-14T05:28:41;6.82;;;2.70;;
45522;SDS011;31254;51.680;5.394;2023-06-14T05:31:07;6.20;;;2.70;;
45522;SDS011;31254;51.680;5.394;2023-06-14T05:33:34;4.38;;;2.67;;
45522;SDS011;31254;51.680;5.394;2023-06-14T05:36:01;11.02;;;3.05;;
45522;SDS011;31254;51.680;5.394;2023-06-14T05:38:28;5.13;;;3.00;;
45522;SDS011;31254;51.680;5.394;2023-06-14T05:40:55;5.40;;;2.83;;
45522;SDS011;31254;51.680;5.394;2023-06-14T05:43:24;5.50;;;2.85;;
45522;SDS011;31254;51.680;5.394;2023-06-14T05:45:50;4.75;;;2.67;;
45522;SDS011;31254;51.680;5.394;2023-06-14T05:48:17;11.00;;;2.95;;
45522;SDS011;31254;51.680;5.394;2023-06-14T05:50:44;8.50;;;3.20;;
45522;SDS011;31254;51.680;5.394;2023-06-14T05:53:10;4.97;;;3.08;;
45522;SDS011;31254;51.680;5.394;2023-06-14T05:55:40;5.88;;;2.85;;
45522;SDS011;31254;51.680;5.394;2023-06-14T05:58:07;6.68;;;2.78;;
45522;SDS011;31254;51.680;5.394;2023-06-14T06:00:33;7.65;;;2.85;;
45522;SDS011;31254;51.680;5.394;2023-06-14T06:03:00;5.15;;;2.70;;
45522;SDS011;31254;51.680;5.394;2023-06-14T06:05:27;6.93;;;3.00;;
45522;SDS011;31254;51.680;5.394;2023-06-14T06:07:54;6.70;;;2.63;;
45522;SDS011;31254;51.680;5.394;2023-06-14T06:10:21;5.55;;;3.08;;
45522;SDS011;31254;51.680;5.394;2023-06-14T06:12:47;5.07;;;2.78;;
45522;SDS011;31254;51.680;5.394;2023-06-14T06:15:15;8.00;;;2.67;;
45522;SDS011;31254;51.680;5.394;2023-06-14T06:17:43;7.10;;;2.67;;
45522;SDS011;31254;51.680;5.394;2023-06-14T06:20:21;5.45;;;3.30;;
45522;SDS011;31254;51.680;5.394;2023-06-14T06:22:55;5.85;;;2.22;;
45522;SDS011;31254;51.680;5.394;2023-06-14T06:25:21;6.20;;;2.35;;
45522;SDS011;31254;51.680;5.394;2023-06-14T06:27:52;4.68;;;2.50;;
45522;SDS011;31254;51.680;5.394;2023-06-14T06:30:22;8.48;;;2.65;;
45522;SDS011;31254;51.680;5.394;2023-06-14T06:32:49;14.40;;;3.10;;
45522;SDS011;31254;51.680;5.394;2023-06-14T06:35:19;7.30;;;2.78;;
45522;SDS011;31254;51.680;5.394;2023-06-14T06:37:46;11.82;;;2.75;;
45522;SDS011;31254;51.680;5.394;2023-06-14T06:40:13;6.63;;;2.25;;
45522;SDS011;31254;51.680;5.394;2023-06-14T06:42:40;4.63;;;2.50;;
45522;SDS011;31254;51.680;5.394;2023-06-14T06:45:06;5.82;;;2.80;;
45522;SDS011;31254;51.680;5.394;2023-06-14T06:47:35;9.10;;;3.10;;
45522;SDS011;31254;51.680;5.394;2023-06-14T06:50:02;6.03;;;2.90;;
45522;SDS011;31254;51.680;5.394;2023-06-14T06:52:34;12.27;;;2.67;;
45522;SDS011;31254;51.680;5.394;2023-06-14T06:55:00;4.32;;;2.30;;
45522;SDS011;31254;51.680;5.394;2023-06-14T06:57:28;7.13;;;2.95;;
45522;SDS011;31254;51.680;5.394;2023-06-14T06:59:58;5.88;;;2.70;;
45522;SDS011;31254;51.680;5.394;2023-06-14T07:02:25;5.50;;;2.58;;
45522;SDS011;31254;51.680;5.394;2023-06-14T07:04:51;5.70;;;2.60;;
45522;SDS011;31254;51.680;5.394;2023-06-14T07:07:18;6.45;;;2.70;;
45522;SDS011;31254;51.680;5.394;2023-06-14T07:09:45;8.10;;;3.28;;
45522;SDS011;31254;51.680;5.394;2023-06-14T07:12:16;13.82;;;3.20;;
45522;SDS011;31254;51.680;5.394;2023-06-14T07:14:43;7.82;;;3.10;;
45522;SDS011;31254;51.680;5.394;2023-06-14T07:17:10;7.35;;;2.33;;
45522;SDS011;31254;51.680;5.394;2023-06-14T07:19:37;6.38;;;2.50;;
45522;SDS011;31254;51.680;5.394;2023-06-14T07:22:06;6.95;;;3.15;;
45522;SDS011;31254;51.680;5.394;2023-06-14T07:24:35;7.32;;;2.67;;
45522;SDS011;31254;51.680;5.394;2023-06-14T07:27:07;9.88;;;3.42;;
45522;SDS011;31254;51.680;5.394;2023-06-14T07:29:40;5.90;;;2.78;;
45522;SDS011;31254;51.680;5.394;2023-06-14T07:32:13;10.70;;;2.83;;
45522;SDS011;31254;51.680;5.394;2023-06-14T07:34:40;6.50;;;2.65;;
45522;SDS011;31254;51.680;5.394;2023-06-14T07:37:11;9.25;;;2.63;;
45522;SDS011;31254;51.680;5.394;2023-06-14T07:39:37;7.57;;;2.92;;
45522;SDS011;31254;51.680;5.394;2023-06-14T07:42:06;7.43;;;2.60;;
45522;SDS011;31254;51.680;5.394;2023-06-14T07:44:36;5.95;;;2.67;;
45522;SDS011;31254;51.680;5.394;2023-06-14T07:47:03;11.75;;;2.50;;
45522;SDS011;31254;51.680;5.394;2023-06-14T07:49:30;6.07;;;2.50;;
45522;SDS011;31254;51.680;5.394;2023-06-14T07:51:57;4.97;;;2.30;;
45522;SDS011;31254;51.680;5.394;2023-06-14T07:54:25;6.35;;;2.10;;
45522;SDS011;31254;51.680;5.394;2023-06-14T07:56:52;10.52;;;2.30;;
45522;SDS011;31254;51.680;5.394;2023-06-14T07:59:19;5.70;;;2.22;;
45522;SDS011;31254;51.680;5.394;2023-06-14T08:01:46;4.45;;;2.60;;
45522;SDS011;31254;51.680;5.394;2023-06-14T08:04:15;9.38;;;2.08;;
45522;SDS011;31254;51.680;5.394;2023-06-14T08:06:41;6.05;;;2.25;;
45522;SDS011;31254;51.680;5.394;2023-06-14T08:09:12;6.82;;;2.00;;
45522;SDS011;31254;51.680;5.394;2023-06-14T08:11:41;3.83;;;1.92;;
45522;SDS011;31254;51.680;5.394;2023-06-14T08:14:08;7.35;;;2.25;;
45522;SDS011;31254;51.680;5.394;2023-06-14T08:16:37;4.07;;;2.10;;
45522;SDS011;31254;51.680;5.394;2023-06-14T08:19:04;6.55;;;2.10;;
45522;SDS011;31254;51.680;5.394;2023-06-14T08:21:31;3.30;;;1.83;;
45522;SDS011;31254;51.680;5.394;2023-06-14T08:24:02;4.65;;;2.42;;
45522;SDS011;31254;51.680;5.394;2023-06-14T08:26:32;5.82;;;1.83;;
45522;SDS011;31254;51.680;5.394;2023-06-14T08:28:59;4.15;;;2.10;;
45522;SDS011;31254;51.680;5.394;2023-06-14T08:31:26;6.93;;;2.20;;
45522;SDS011;31254;51.680;5.394;2023-06-14T08:33:53;6.38;;;2.28;;
45522;SDS011;31254;51.680;5.394;2023-06-14T08:36:23;7.93;;;2.10;;
45522;SDS011;31254;51.680;5.394;2023-06-14T08:38:52;7.05;;;2.55;;
45522;SDS011;31254;51.680;5.394;2023-06-14T08:41:22;10.20;;;2.22;;
45522;SDS011;31254;51.680;5.394;2023-06-14T08:43:51;3.55;;;1.85;;
45522;SDS011;31254;51.680;5.394;2023-06-14T08:46:18;5.57;;;2.17;;
45522;SDS011;31254;51.680;5.394;2023-06-14T08:48:49;6.13;;;1.85;;
45522;SDS011;31254;51.680;5.394;2023-06-14T08:51:24;7.13;;;1.52;;
45522;SDS011;31254;51.680;5.394;2023-06-14T08:53:54;13.27;;;1.85;;
45522;SDS011;31254;51.680;5.394;2023-06-14T08:56:25;3.83;;;1.70;;
45522;SDS011;31254;51.680;5.394;2023-06-14T08:58:54;2.90;;;1.50;;
45522;SDS011;31254;51.680;5.394;2023-06-14T09:01:23;4.07;;;1.40;;
45522;SDS011;31254;51.680;5.394;2023-06-14T09:03:50;2.53;;;1.40;;
45522;SDS011;31254;51.680;5.394;2023-06-14T09:06:17;6.70;;;1.48;;
45522;SDS011;31254;51.680;5.394;2023-06-14T09:08:45;4.82;;;1.83;;
45522;SDS011;31254;51.680;5.394;2023-06-14T09:11:15;7.22;;;1.55;;
45522;SDS011;31254;51.680;5.394;2023-06-14T09:13:45;5.63;;;1.60;;
45522;SDS011;31254;51.680;5.394;2023-06-14T09:16:12;3.78;;;2.10;;
45522;SDS011;31254;51.680;5.394;2023-06-14T09:18:46;6.25;;;1.40;;
45522;SDS011;31254;51.680;5.394;2023-06-14T09:21:15;2.38;;;1.27;;
45522;SDS011;31254;51.680;5.394;2023-06-14T09:23:44;1.52;;;1.00;;
45522;SDS011;31254;51.680;5.394;2023-06-14T09:26:13;6.22;;;1.10;;
45522;SDS011;31254;51.680;5.394;2023-06-14T09:28:45;5.80;;;1.10;;
45522;SDS011;31254;51.680;5.394;2023-06-14T09:31:14;1.40;;;0.93;;
45522;SDS011;31254;51.680;5.394;2023-06-14T09:33:45;1.88;;;0.93;;
45522;SDS011;31254;51.680;5.394;2023-06-14T09:36:15;5.43;;;1.00;;
45522;SDS011;31254;51.680;5.394;2023-06-14T09:38:53;2.92;;;1.00;;
45522;SDS011;31254;51.680;5.394;2023-06-14T09:41:57;1.83;;;0.95;;
45522;SDS011;31254;51.680;5.394;2023-06-14T09:44:17;2.22;;;0.98;;
45522;SDS011;31254;51.680;5.394;2023-06-14T09:46:47;4.90;;;1.10;;
45522;SDS011;31254;51.680;5.394;2023-06-14T09:49:14;1.30;;;0.80;;
45522;SDS011;31254;51.680;5.394;2023-06-14T09:51:43;1.70;;;1.10;;
45522;SDS011;31254;51.680;5.394;2023-06-14T09:54:14;3.28;;;1.05;;
45522;SDS011;31254;51.680;5.394;2023-06-14T09:56:44;4.82;;;0.88;;
45522;SDS011;31254;51.680;5.394;2023-06-14T09:59:14;3.28;;;1.00;;
45522;SDS011;31254;51.680;5.394;2023-06-14T10:01:45;2.88;;;0.95;;
45522;SDS011;31254;51.680;5.394;2023-06-14T10:04:16;1.83;;;0.95;;
45522;SDS011;31254;51.680;5.394;2023-06-14T10:06:48;1.10;;;0.90;;
45522;SDS011;31254;51.680;5.394;2023-06-14T10:09:17;6.35;;;0.95;;
45522;SDS011;31254;51.680;5.394;2023-06-14T10:11:44;3.38;;;1.65;;
45522;SDS011;31254;51.680;5.394;2023-06-14T10:14:14;2.63;;;1.30;;
45522;SDS011;31254;51.680;5.394;2023-06-14T10:19:32;1.70;;;1.08;;
45522;SDS011;31254;51.680;5.394;2023-06-14T10:22:42;5.97;;;1.40;;
45522;SDS011;31254;51.680;5.394;2023-06-14T10:25:06;2.40;;;1.02;;
45522;SDS011;31254;51.680;5.394;2023-06-14T10:27:38;4.10;;;1.10;;
45522;SDS011;31254;51.680;5.394;2023-06-14T10:30:06;3.22;;;1.20;;
45522;SDS011;31254;51.680;5.394;2023-06-14T10:32:34;3.28;;;1.08;;
45522;SDS011;31254;51.680;5.394;2023-06-14T10:35:04;2.20;;;1.08;;
45522;SDS011;31254;51.680;5.394;2023-06-14T10:37:33;4.85;;;1.35;;
45522;SDS011;31254;51.680;5.394;2023-06-14T10:40:00;5.97;;;1.23;;
45522;SDS011;31254;51.680;5.394;2023-06-14T10:42:27;6.90;;;1.20;;
45522;SDS011;31254;51.680;5.394;2023-06-14T10:45:00;1.48;;;1.17;;
45522;SDS011;31254;51.680;5.394;2023-06-14T10:47:34;7.28;;;1.40;;
45522;SDS011;31254;51.680;5.394;2023-06-14T10:52:29;4.40;;;1.40;;
45522;SDS011;31254;51.680;5.394;2023-06-14T10:57:30;3.08;;;1.20;;
45522;SDS011;31254;51.680;5.394;2023-06-14T11:00:17;2.28;;;1.17;;
45522;SDS011;31254;51.680;5.394;2023-06-14T11:09:10;2.17;;;1.20;;
45522;SDS011;31254;51.680;5.394;2023-06-14T11:11:25;1.95;;;1.08;;
45522;SDS011;31254;51.680;5.394;2023-06-14T11:13:59;1.50;;;1.10;;
45522;SDS011;31254;51.680;5.394;2023-06-14T11:16:28;2.10;;;1.17;;
45522;SDS011;31254;51.680;5.394;2023-06-14T11:19:02;3.30;;;1.13;;
45522;SDS011;31254;51.680;5.394;2023-06-14T11:21:32;3.10;;;1.20;;
45522;SDS011;31254;51.680;5.394;2023-06-14T11:24:01;4.35;;;1.30;;
45522;SDS011;31254;51.680;5.394;2023-06-14T11:26:31;2.88;;;1.20;;
45522;SDS011;31254;51.680;5.394;2023-06-14T11:29:01;4.70;;;1.23;;
45522;SDS011;31254;51.680;5.394;2023-06-14T11:31:28;9.85;;;1.10;;
45522;SDS011;31254;51.680;5.394;2023-06-14T11:34:01;2.05;;;1.20;;
45522;SDS011;31254;51.680;5.394;2023-06-14T11:36:30;4.78;;;1.30;;
45522;SDS011;31254;51.680;5.394;2023-06-14T11:39:03;3.38;;;1.20;;
45522;SDS011;31254;51.680;5.394;2023-06-14T11:41:42;3.60;;;1.33;;
45522;SDS011;31254;51.680;5.394;2023-06-14T11:44:09;4.03;;;1.30;;
45522;SDS011;31254;51.680;5.394;2023-06-14T11:46:38;6.03;;;1.50;;
45522;SDS011;31254;51.680;5.394;2023-06-14T11:49:06;1.95;;;1.17;;
45522;SDS011;31254;51.680;5.394;2023-06-14T11:51:36;4.55;;;1.30;;
45522;SDS011;31254;51.680;5.394;2023-06-14T11:54:03;2.67;;;1.50;;
45522;SDS011;31254;51.680;5.394;2023-06-14T11:56:31;2.22;;;1.10;;
45522;SDS011;31254;51.680;5.394;2023-06-14T11:58:59;2.10;;;1.10;;
45522;SDS011;31254;51.680;5.394;2023-06-14T12:01:29;5.35;;;1.23;;
45522;SDS011;31254;51.680;5.394;2023-06-14T12:03:56;1.88;;;1.13;;
45522;SDS011;31254;51.680;5.394;2023-06-14T12:06:26;4.57;;;1.20;;
45522;SDS011;31254;51.680;5.394;2023-06-14T12:08:56;2.58;;;1.10;;
45522;SDS011;31254;51.680;5.394;2023-06-14T12:11:23;5.60;;;1.30;;
45522;SDS011;31254;51.680;5.394;2023-06-14T12:13:54;2.83;;;1.20;;
45522;SDS011;31254;51.680;5.394;2023-06-14T12:16:29;3.15;;;1.95;;
45522;SDS011;31254;51.680;5.394;2023-06-14T12:19:16;5.18;;;1.40;;
45522;SDS011;31254;51.680;5.394;2023-06-14T12:21:46;2.42;;;1.38;;
45522;SDS011;31254;51.680;5.394;2023-06-14T12:24:19;2.60;;;1.10;;
45522;SDS011;31254;51.680;5.394;2023-06-14T12:26:51;6.13;;;1.20;;
45522;SDS011;31254;51.680;5.394;2023-06-14T12:29:19;3.00;;;1.23;;
45522;SDS011;31254;51.680;5.394;2023-06-14T12:31:48;5.20;;;1.45;;
45522;SDS011;31254;51.680;5.394;2023-06-14T12:34:14;2.42;;;1.50;;
45522;SDS011;31254;51.680;5.394;2023-06-14T12:36:41;2.13;;;1.50;;
45522;SDS011;31254;51.680;5.394;2023-06-14T12:39:11;2.20;;;1.33;;
45522;SDS011;31254;51.680;5.394;2023-06-14T12:41:40;2.55;;;1.30;;
45522;SDS011;31254;51.680;5.394;2023-06-14T12:44:12;3.28;;;1.60;;
45522;SDS011;31254;51.680;5.394;2023-06-14T12:46:45;3.47;;;1.30;;
45522;SDS011;31254;51.680;5.394;2023-06-14T12:49:12;8.48;;;1.35;;
45522;SDS011;31254;51.680;5.394;2023-06-14T12:51:39;4.40;;;1.40;;
45522;SDS011;31254;51.680;5.394;2023-06-14T12:54:11;2.30;;;1.17;;
45522;SDS011;31254;51.680;5.394;2023-06-14T12:56:38;3.45;;;1.42;;
45522;SDS011;31254;51.680;5.394;2023-06-14T12:59:08;3.72;;;1.20;;
45522;SDS011;31254;51.680;5.394;2023-06-14T13:01:35;5.03;;;1.17;;
45522;SDS011;31254;51.680;5.394;2023-06-14T13:04:04;4.40;;;1.20;;
45522;SDS011;31254;51.680;5.394;2023-06-14T13:06:31;2.03;;;1.23;;
45522;SDS011;31254;51.680;5.394;2023-06-14T13:09:01;2.33;;;1.00;;
45522;SDS011;31254;51.680;5.394;2023-06-14T13:11:28;3.28;;;0.95;;
45522;SDS011;31254;51.680;5.394;2023-06-14T13:13:54;2.55;;;1.20;;
45522;SDS011;31254;51.680;5.394;2023-06-14T13:16:24;2.53;;;1.33;;
45522;SDS011;31254;51.680;5.394;2023-06-14T13:18:51;4.00;;;1.25;;
45522;SDS011;31254;51.680;5.394;2023-06-14T13:21:17;2.63;;;1.45;;
45522;SDS011;31254;51.680;5.394;2023-06-14T13:23:44;3.40;;;1.10;;
45522;SDS011;31254;51.680;5.394;2023-06-14T13:26:11;4.22;;;1.17;;
45522;SDS011;31254;51.680;5.394;2023-06-14T13:28:40;4.97;;;1.20;;
45522;SDS011;31254;51.680;5.394;2023-06-14T13:31:10;2.53;;;1.40;;
45522;SDS011;31254;51.680;5.394;2023-06-14T13:33:37;4.03;;;1.25;;
45522;SDS011;31254;51.680;5.394;2023-06-14T13:36:04;5.63;;;1.20;;
45522;SDS011;31254;51.680;5.394;2023-06-14T13:38:33;6.85;;;1.15;;
45522;SDS011;31254;51.680;5.394;2023-06-14T13:41:04;6.22;;;1.15;;
45522;SDS011;31254;51.680;5.394;2023-06-14T13:43:31;6.50;;;1.27;;
45522;SDS011;31254;51.680;5.394;2023-06-14T13:45:58;2.88;;;1.13;;
45522;SDS011;31254;51.680;5.394;2023-06-14T13:48:25;2.30;;;1.05;;
45522;SDS011;31254;51.680;5.394;2023-06-14T13:50:52;3.50;;;1.02;;
45522;SDS011;31254;51.680;5.394;2023-06-14T13:53:23;1.35;;;1.00;;
45522;SDS011;31254;51.680;5.394;2023-06-14T13:56:05;2.00;;;1.00;;
45522;SDS011;31254;51.680;5.394;2023-06-14T13:58:32;3.60;;;0.90;;
45522;SDS011;31254;51.680;5.394;2023-06-14T14:01:00;3.78;;;1.30;;
45522;SDS011;31254;51.680;5.394;2023-06-14T14:03:28;1.45;;;0.88;;
45522;SDS011;31254;51.680;5.394;2023-06-14T14:05:57;2.80;;;1.10;;
45522;SDS011;31254;51.680;5.394;2023-06-14T14:08:24;2.58;;;1.20;;
45522;SDS011;31254;51.680;5.394;2023-06-14T14:10:51;1.45;;;0.95;;
45522;SDS011;31254;51.680;5.394;2023-06-14T14:13:17;5.78;;;1.08;;
45522;SDS011;31254;51.680;5.394;2023-06-14T14:15:44;3.45;;;1.25;;
45522;SDS011;31254;51.680;5.394;2023-06-14T14:18:11;5.60;;;1.15;;
45522;SDS011;31254;51.680;5.394;2023-06-14T14:20:38;3.75;;;1.15;;
45522;SDS011;31254;51.680;5.394;2023-06-14T14:23:08;1.85;;;0.70;;
45522;SDS011;31254;51.680;5.394;2023-06-14T14:25:36;1.23;;;0.80;;
45522;SDS011;31254;51.680;5.394;2023-06-14T14:28:05;4.20;;;0.98;;
45522;SDS011;31254;51.680;5.394;2023-06-14T14:30:32;2.00;;;1.02;;
45522;SDS011;31254;51.680;5.394;2023-06-14T14:33:00;2.85;;;1.10;;
45522;SDS011;31254;51.680;5.394;2023-06-14T14:35:26;4.13;;;1.17;;
45522;SDS011;31254;51.680;5.394;2023-06-14T14:37:57;2.80;;;1.00;;
45522;SDS011;31254;51.680;5.394;2023-06-14T14:40:23;2.03;;;0.82;;
45522;SDS011;31254;51.680;5.394;2023-06-14T14:42:50;3.17;;;0.88;;
45522;SDS011;31254;51.680;5.394;2023-06-14T14:45:19;3.70;;;1.02;;
45522;SDS011;31254;51.680;5.394;2023-06-14T14:47:48;1.67;;;0.80;;
45522;SDS011;31254;51.680;5.394;2023-06-14T14:50:15;3.55;;;1.00;;
45522;SDS011;31254;51.680;5.394;2023-06-14T14:52:43;1.70;;;0.90;;
45522;SDS011;31254;51.680;5.394;2023-06-14T14:55:12;2.10;;;0.77;;
45522;SDS011;31254;51.680;5.394;2023-06-14T14:57:39;2.25;;;0.60;;
45522;SDS011;31254;51.680;5.394;2023-06-14T15:00:09;2.83;;;0.73;;
45522;SDS011;31254;51.680;5.394;2023-06-14T15:02:35;1.20;;;0.70;;
45522;SDS011;31254;51.680;5.394;2023-06-14T15:05:02;2.97;;;0.70;;
45522;SDS011;31254;51.680;5.394;2023-06-14T15:07:30;4.28;;;0.90;;
45522;SDS011;31254;51.680;5.394;2023-06-14T15:09:57;2.63;;;1.10;;